< < Back
Terminal Aerodrome Forecast


Current Version              Previous Versions:   1  2  3  4  5  6  7  8  9  

Terminal Aerodrome Forecast

495
FTUS42 KTAE 191700 AAA
TAFTLH
TAF AMD
KTLH 191757Z 1918/2018 36011KT P6SM BKN013 OVC020
     FM200000 02008KT P6SM BKN009
     FM200900 03010KT 5SM BR OVC006=

Latest METAR

425
SAUS80 KWBC 200800 CCA
MTRTLH
METAR KTLH 200753Z AUTO 02009G16KT 10SM OVC013 15/11 A3005 RMK AO2
SLP174 T01500111 $


USA.gov is the U.S. government's official web portal to all federal, state and local government web resources and services.